createdAt,value
2022-11-15T00:00:56.741Z,40.95
2022-11-15T00:03:43.642Z,35.97
2022-11-15T00:06:30.255Z,37.95
2022-11-15T00:09:18.031Z,37.60
2022-11-15T00:12:04.691Z,39.97
2022-11-15T00:14:51.158Z,36.58
2022-11-15T00:17:38.084Z,35.60
2022-11-15T00:20:24.625Z,34.33
2022-11-15T00:23:11.701Z,35.70
2022-11-15T00:26:00.150Z,37.00
2022-11-15T00:28:46.886Z,35.10
2022-11-15T00:31:33.574Z,37.83
2022-11-15T00:34:20.556Z,37.92
2022-11-15T00:37:08.579Z,38.03
2022-11-15T00:39:55.432Z,36.65
2022-11-15T00:42:44.239Z,33.35
2022-11-15T00:45:30.982Z,35.70
2022-11-15T00:48:17.534Z,37.08
2022-11-15T00:51:04.270Z,37.92
2022-11-15T00:53:51.419Z,39.20
2022-11-15T00:56:37.923Z,35.00
2022-11-15T00:59:26.540Z,36.22
2022-11-15T01:02:13.581Z,36.53
2022-11-15T01:05:00.284Z,36.30
2022-11-15T01:07:46.935Z,39.35
2022-11-15T01:10:33.627Z,37.22
2022-11-15T01:13:20.297Z,34.42
2022-11-15T01:16:14.053Z,35.83
2022-11-15T01:19:00.754Z,36.45
2022-11-15T01:21:47.491Z,37.45
2022-11-15T01:24:34.204Z,37.83
2022-11-15T01:27:20.723Z,33.72
2022-11-15T01:30:09.297Z,34.60
2022-11-15T01:32:57.585Z,37.70
2022-11-15T01:35:44.356Z,35.35
2022-11-15T01:38:30.964Z,38.10
2022-11-15T01:41:19.540Z,34.25
2022-11-15T01:44:42.061Z,37.47
2022-11-15T01:47:32.194Z,36.63
2022-11-15T01:50:24.329Z,40.95
2022-11-15T01:53:13.823Z,38.63
2022-11-15T01:56:00.978Z,36.25
2022-11-15T01:58:48.110Z,38.28
2022-11-15T02:01:36.166Z,37.33
2022-11-15T02:04:26.322Z,38.10
2022-11-15T02:07:17.829Z,37.10
2022-11-15T02:10:09.569Z,35.28
2022-11-15T02:12:57.813Z,40.75
2022-11-15T02:16:02.650Z,36.75
2022-11-15T02:18:55.598Z,37.40
2022-11-15T02:21:45.911Z,38.97
2022-11-15T02:24:57.756Z,38.55
2022-11-15T02:28:23.617Z,37.05
2022-11-15T02:31:15.970Z,37.25
2022-11-15T02:34:10.742Z,34.55
2022-11-15T02:37:05.913Z,38.38
2022-11-15T02:40:01.275Z,34.75
2022-11-15T02:43:11.967Z,36.25
2022-11-15T02:46:04.050Z,37.95
2022-11-15T02:48:53.191Z,38.15
2022-11-15T02:51:40.836Z,37.95
2022-11-15T02:54:31.427Z,35.72
2022-11-15T02:57:21.258Z,38.30
2022-11-15T03:00:10.361Z,37.22
2022-11-15T03:03:18.277Z,35.40
2022-11-15T03:06:17.805Z,36.15
2022-11-15T03:09:11.643Z,37.90
2022-11-15T03:12:05.993Z,36.92
2022-11-15T03:14:59.441Z,35.85
2022-11-15T03:17:53.263Z,36.22
2022-11-15T03:20:41.196Z,38.50
2022-11-15T03:23:32.482Z,38.95
2022-11-15T03:26:23.628Z,37.63
2022-11-15T03:29:14.170Z,36.97
2022-11-15T03:32:05.957Z,35.58
2022-11-15T03:34:57.919Z,33.95
2022-11-15T03:37:49.131Z,32.00
2022-11-15T03:40:41.797Z,44.13
2022-11-15T03:43:36.210Z,37.08
2022-11-15T03:46:27.832Z,37.17
2022-11-15T03:49:19.176Z,39.95
2022-11-15T03:52:06.790Z,36.95
2022-11-15T03:54:55.599Z,35.10
2022-11-15T03:57:43.864Z,38.88
2022-11-15T04:00:31.013Z,39.00
2022-11-15T04:03:17.903Z,40.90
2022-11-15T04:06:04.763Z,38.63
2022-11-15T04:08:51.419Z,35.53
2022-11-15T04:11:37.864Z,39.40
2022-11-15T04:14:26.163Z,40.05
2022-11-15T04:17:12.909Z,36.47
2022-11-15T04:20:17.291Z,34.95
2022-11-15T04:23:23.629Z,39.50
2022-11-15T04:26:13.685Z,37.90
2022-11-15T04:29:18.077Z,40.70
2022-11-15T04:32:07.494Z,39.50
2022-11-15T04:34:53.946Z,39.63
2022-11-15T04:37:42.865Z,39.97
2022-11-15T04:40:33.538Z,40.80
2022-11-15T04:43:20.189Z,37.25
2022-11-15T04:46:07.331Z,39.38
2022-11-15T04:48:58.908Z,39.60
2022-11-15T04:51:46.117Z,39.83
2022-11-15T04:54:32.735Z,37.70
2022-11-15T04:57:20.206Z,40.90
2022-11-15T05:00:09.244Z,41.45
2022-11-15T05:03:13.499Z,39.33
2022-11-15T05:06:01.795Z,39.80
2022-11-15T05:08:48.424Z,37.03
2022-11-15T05:11:35.249Z,42.42
2022-11-15T05:14:21.817Z,39.85
2022-11-15T05:17:08.698Z,40.85
2022-11-15T05:19:55.287Z,46.17
2022-11-15T05:22:43.465Z,40.58
2022-11-15T05:25:30.235Z,42.10
2022-11-15T05:28:17.065Z,43.30
2022-11-15T05:31:03.801Z,39.47
2022-11-15T05:33:51.718Z,43.70
2022-11-15T05:36:40.623Z,45.33
2022-11-15T05:39:28.604Z,46.22
2022-11-15T05:42:17.270Z,39.30
2022-11-15T05:45:04.776Z,43.30
2022-11-15T05:47:52.585Z,42.38
2022-11-15T05:50:40.947Z,42.95
2022-11-15T05:53:28.676Z,43.40
2022-11-15T05:56:17.251Z,41.78
2022-11-15T05:59:05.188Z,40.92
2022-11-15T06:01:52.087Z,46.35
2022-11-15T06:04:39.150Z,41.85
2022-11-15T06:07:26.153Z,42.80
2022-11-15T06:10:13.141Z,49.40
2022-11-15T06:13:02.196Z,43.85
2022-11-15T06:15:48.913Z,45.58
2022-11-15T06:18:36.798Z,44.58
2022-11-15T06:21:23.535Z,41.83
2022-11-15T06:24:10.243Z,44.75
2022-11-15T06:26:57.070Z,46.55
2022-11-15T06:29:45.320Z,46.40
2022-11-15T06:32:32.490Z,45.65
2022-11-15T06:35:19.751Z,44.22
2022-11-15T06:38:08.282Z,47.30
2022-11-15T06:40:54.710Z,49.92
2022-11-15T06:43:42.522Z,45.38
2022-11-15T06:46:30.719Z,47.40
2022-11-15T06:49:17.961Z,51.83
2022-11-15T06:52:04.866Z,47.58
2022-11-15T06:54:51.788Z,47.45
2022-11-15T06:57:38.777Z,42.67
2022-11-15T07:00:25.450Z,43.85
2022-11-15T07:03:13.351Z,47.10
2022-11-15T07:06:06.744Z,44.55
2022-11-15T07:08:54.272Z,41.45
2022-11-15T07:11:41.071Z,46.15
2022-11-15T07:14:27.625Z,42.25
2022-11-15T07:17:14.442Z,42.83
2022-11-15T07:20:02.319Z,39.33
2022-11-15T07:22:48.869Z,42.00
2022-11-15T07:25:35.590Z,47.85
2022-11-15T07:28:22.341Z,43.05
2022-11-15T07:31:10.736Z,40.53
2022-11-15T07:33:57.631Z,38.13
2022-11-15T07:36:45.708Z,42.40
2022-11-15T07:39:32.094Z,41.13
2022-11-15T07:42:36.166Z,37.60
2022-11-15T07:45:23.010Z,38.17
2022-11-15T07:48:09.741Z,35.80
2022-11-15T07:50:56.563Z,38.30
2022-11-15T07:53:45.456Z,37.90
2022-11-15T07:56:31.977Z,38.50
2022-11-15T07:59:18.728Z,35.40
2022-11-15T08:02:05.924Z,36.97
2022-11-15T08:04:52.894Z,36.20
2022-11-15T08:07:41.232Z,37.53
2022-11-15T08:10:29.793Z,34.75
2022-11-15T08:13:16.806Z,35.63
2022-11-15T08:16:06.586Z,36.08
2022-11-15T08:18:53.567Z,35.90
2022-11-15T08:21:40.387Z,33.88
2022-11-15T08:24:27.469Z,35.20
2022-11-15T08:27:16.876Z,32.38
2022-11-15T08:30:05.106Z,37.92
2022-11-15T08:32:52.450Z,33.13
2022-11-15T08:35:39.687Z,39.00
2022-11-15T08:38:26.780Z,33.42
2022-11-15T08:41:19.000Z,31.42
2022-11-15T08:44:07.416Z,33.88
2022-11-15T08:46:53.919Z,33.83
2022-11-15T08:49:40.720Z,33.22
2022-11-15T08:52:27.205Z,32.08
2022-11-15T08:55:15.213Z,31.58
2022-11-15T08:58:04.098Z,31.95
2022-11-15T09:00:52.304Z,29.70
2022-11-15T09:03:39.043Z,33.30
2022-11-15T09:06:25.924Z,28.98
2022-11-15T09:09:12.659Z,31.95
2022-11-15T09:12:02.573Z,31.25
2022-11-15T09:14:49.702Z,33.42
2022-11-15T09:17:38.251Z,30.33
2022-11-15T09:20:25.203Z,31.10
2022-11-15T09:23:12.231Z,27.67
2022-11-15T09:26:03.902Z,29.20
2022-11-15T09:28:51.219Z,28.48
2022-11-15T09:31:38.034Z,30.83
2022-11-15T09:34:25.932Z,27.65
2022-11-15T09:37:13.342Z,29.58
2022-11-15T09:40:00.253Z,27.83
2022-11-15T09:43:05.732Z,28.38
2022-11-15T09:46:03.400Z,26.63
2022-11-15T09:48:56.182Z,30.08
2022-11-15T09:51:50.964Z,26.00
2022-11-15T09:57:19.627Z,26.77
2022-11-15T10:00:30.880Z,30.23
2022-11-15T10:03:10.465Z,30.08
2022-11-15T10:05:42.297Z,29.95
2022-11-15T10:08:38.338Z,32.88
2022-11-15T10:11:36.246Z,29.83
2022-11-15T10:14:02.952Z,29.70
2022-11-15T10:16:59.790Z,33.58
2022-11-15T10:19:33.174Z,30.17
2022-11-15T10:22:15.027Z,31.73
2022-11-15T10:24:46.657Z,30.77
2022-11-15T10:27:18.465Z,28.67
2022-11-15T10:29:48.260Z,31.00
2022-11-15T10:32:18.267Z,27.48
2022-11-15T10:34:46.919Z,31.88
2022-11-15T10:37:15.391Z,25.92
2022-11-15T10:39:45.203Z,30.83
2022-11-15T10:42:27.958Z,27.80
2022-11-15T10:44:56.953Z,26.30
2022-11-15T10:47:37.618Z,28.73
2022-11-15T10:50:09.963Z,25.15
2022-11-15T10:52:39.958Z,34.35
2022-11-15T10:55:24.828Z,27.92
2022-11-15T10:57:56.422Z,26.48
2022-11-15T11:00:35.275Z,27.08
2022-11-15T11:03:06.851Z,30.83
2022-11-15T11:05:41.766Z,25.45
2022-11-15T11:08:25.118Z,27.60
2022-11-15T11:11:02.469Z,25.40
2022-11-15T11:13:33.173Z,27.42
2022-11-15T11:16:19.759Z,28.52
2022-11-15T11:18:54.289Z,30.80
2022-11-15T11:21:38.416Z,27.35
2022-11-15T11:24:17.124Z,28.83
2022-11-15T11:26:57.257Z,27.25
2022-11-15T11:29:43.763Z,27.15
2022-11-15T11:32:28.597Z,28.10
2022-11-15T11:35:07.816Z,24.65
2022-11-15T11:37:46.348Z,27.20
2022-11-15T11:40:26.773Z,25.85
2022-11-15T11:43:02.478Z,24.88
2022-11-15T11:45:56.086Z,23.58
2022-11-15T11:48:39.064Z,23.42
2022-11-15T11:51:13.932Z,27.10
2022-11-15T11:53:48.120Z,25.77
2022-11-15T11:56:24.526Z,22.83
2022-11-15T11:58:57.563Z,23.27
2022-11-15T12:01:27.668Z,24.45
2022-11-15T12:03:59.285Z,19.65
2022-11-15T12:06:34.159Z,19.05
2022-11-15T12:09:09.329Z,20.00
2022-11-15T12:11:46.039Z,20.05
2022-11-15T12:14:28.693Z,19.02
2022-11-15T12:16:57.120Z,19.63
2022-11-15T12:19:27.258Z,19.00
2022-11-15T12:22:02.564Z,23.63
2022-11-15T12:24:36.686Z,19.42
2022-11-15T12:27:09.458Z,18.67
2022-11-15T12:29:42.512Z,22.27
2022-11-15T12:32:26.767Z,19.73
2022-11-15T12:34:56.663Z,19.63
2022-11-15T12:37:52.618Z,18.50
2022-11-15T12:40:30.104Z,19.92
2022-11-15T12:43:43.725Z,19.33
2022-11-15T12:46:24.284Z,20.48
2022-11-15T12:48:58.290Z,17.95
2022-11-15T12:52:07.016Z,18.38
2022-11-15T12:55:04.183Z,16.33
2022-11-15T12:57:41.066Z,17.27
2022-11-15T13:00:46.227Z,16.48
2022-11-15T13:03:27.614Z,14.15
2022-11-15T13:06:01.072Z,13.75
2022-11-15T13:08:53.483Z,12.75
2022-11-15T13:11:53.631Z,12.75
2022-11-15T13:14:45.826Z,11.75
2022-11-15T13:17:40.868Z,10.25
2022-11-15T13:20:27.698Z,10.93
2022-11-15T13:23:04.336Z,11.50
2022-11-15T13:25:57.167Z,9.18
2022-11-15T13:28:34.119Z,6.70
2022-11-15T13:31:16.044Z,6.70
2022-11-15T13:33:46.327Z,6.53
2022-11-15T13:36:22.435Z,5.75
2022-11-15T13:38:59.653Z,5.72
2022-11-15T13:41:29.978Z,5.53
2022-11-15T13:43:59.932Z,8.70
2022-11-15T13:46:30.044Z,8.55
2022-11-15T13:49:00.484Z,7.22
2022-11-15T13:51:46.217Z,8.57
2022-11-15T13:54:22.086Z,7.63
2022-11-15T13:56:59.842Z,11.35
2022-11-15T13:59:29.636Z,7.63
2022-11-15T14:02:02.129Z,6.78
2022-11-15T14:04:34.857Z,10.20
2022-11-15T14:07:05.318Z,7.38
2022-11-15T14:09:39.324Z,8.20
2022-11-15T14:12:26.983Z,8.43
2022-11-15T14:14:55.711Z,8.20
2022-11-15T14:17:36.930Z,8.52
2022-11-15T14:20:22.413Z,7.22
2022-11-15T14:22:57.431Z,8.60
2022-11-15T14:25:28.183Z,9.70
2022-11-15T14:28:19.305Z,9.65
2022-11-15T14:30:51.373Z,9.77
2022-11-15T14:33:23.386Z,13.13
2022-11-15T14:35:52.348Z,10.50
2022-11-15T14:38:22.627Z,9.15
2022-11-15T14:40:51.399Z,7.82
2022-11-15T14:43:19.677Z,11.40
2022-11-15T14:45:47.933Z,10.00
2022-11-15T14:48:16.477Z,7.38
2022-11-15T14:50:45.048Z,9.15
2022-11-15T14:53:15.772Z,10.98
2022-11-15T14:55:45.701Z,10.73
2022-11-15T14:58:13.967Z,9.20
2022-11-15T15:00:43.725Z,8.60
2022-11-15T15:03:12.035Z,10.13
2022-11-15T15:05:41.968Z,7.53
2022-11-15T15:08:10.923Z,9.82
2022-11-15T15:10:42.025Z,8.52
2022-11-15T15:13:19.101Z,9.77
2022-11-15T15:15:48.144Z,10.10
2022-11-15T15:18:16.607Z,10.50
2022-11-15T15:20:46.896Z,10.65
2022-11-15T15:23:19.077Z,12.05
2022-11-15T15:25:49.788Z,11.18
2022-11-15T15:28:19.492Z,13.38
2022-11-15T15:30:47.849Z,12.50
2022-11-15T15:33:16.167Z,12.55
2022-11-15T15:35:44.671Z,11.50
2022-11-15T15:38:14.214Z,13.93
2022-11-15T15:40:42.600Z,12.60
2022-11-15T15:43:10.917Z,13.60
2022-11-15T15:45:42.920Z,15.70
2022-11-15T15:48:14.522Z,15.00
2022-11-15T15:50:44.176Z,15.52
2022-11-15T15:53:13.869Z,12.00
2022-11-15T15:55:42.556Z,14.10
2022-11-15T15:58:10.891Z,11.88
2022-11-15T16:00:40.602Z,15.60
2022-11-15T16:03:08.827Z,14.07
2022-11-15T16:05:37.170Z,17.02
2022-11-15T16:08:05.457Z,20.70
2022-11-15T16:10:35.914Z,22.73
2022-11-15T16:13:04.313Z,19.45
2022-11-15T16:15:33.893Z,21.27
2022-11-15T16:18:04.374Z,17.75
2022-11-15T16:20:36.128Z,15.38
2022-11-15T16:23:08.951Z,15.18
2022-11-15T16:25:43.317Z,15.05
2022-11-15T16:28:20.819Z,15.30
2022-11-15T16:30:53.907Z,14.88
2022-11-15T16:33:26.293Z,14.55
2022-11-15T16:35:54.603Z,18.15
2022-11-15T16:38:23.060Z,16.60
2022-11-15T16:40:51.312Z,17.98
2022-11-15T16:43:19.703Z,16.73
2022-11-15T16:45:48.415Z,19.58
2022-11-15T16:48:25.231Z,17.77
2022-11-15T16:50:57.128Z,20.55
2022-11-15T16:53:25.744Z,21.33
2022-11-15T16:55:53.982Z,20.08
2022-11-15T16:58:22.461Z,19.60
2022-11-15T17:00:53.095Z,16.40
2022-11-15T17:03:21.741Z,16.33
2022-11-15T17:05:50.303Z,16.75
2022-11-15T17:08:20.945Z,17.10
2022-11-15T17:10:49.236Z,18.23
2022-11-15T17:13:17.553Z,19.98
2022-11-15T17:15:46.062Z,18.65
2022-11-15T17:18:15.632Z,19.83
2022-11-15T17:20:43.988Z,21.75
2022-11-15T17:23:15.550Z,19.10
2022-11-15T17:25:45.213Z,20.30
2022-11-15T17:28:13.443Z,19.00
2022-11-15T17:30:44.820Z,19.23
2022-11-15T17:33:13.043Z,18.95
2022-11-15T17:35:41.317Z,24.55
2022-11-15T17:38:09.612Z,21.33
2022-11-15T17:40:37.891Z,17.05
2022-11-15T17:43:08.108Z,17.08
2022-11-15T17:45:37.621Z,18.38
2022-11-15T17:48:05.985Z,20.63
2022-11-15T17:50:34.353Z,18.00
2022-11-15T17:53:02.523Z,17.92
2022-11-15T17:55:30.749Z,19.58
2022-11-15T17:57:59.010Z,20.05
2022-11-15T18:00:28.628Z,18.70
2022-11-15T18:02:58.618Z,19.80
2022-11-15T18:05:26.861Z,16.75
2022-11-15T18:07:55.182Z,17.92
2022-11-15T18:10:23.411Z,17.30
2022-11-15T18:12:51.736Z,17.15
2022-11-15T18:15:21.398Z,18.35
2022-11-15T18:17:51.046Z,17.13
2022-11-15T18:20:19.489Z,18.17
2022-11-15T18:22:47.969Z,16.33
2022-11-15T18:25:16.449Z,17.67
2022-11-15T18:27:44.723Z,20.15
2022-11-15T18:30:13.986Z,17.98
2022-11-15T18:32:42.227Z,17.88
2022-11-15T18:35:11.951Z,14.80
2022-11-15T18:37:40.471Z,16.42
2022-11-15T18:40:10.215Z,17.33
2022-11-15T18:42:38.485Z,16.50
2022-11-15T18:45:07.589Z,14.93
2022-11-15T18:47:36.018Z,18.27
2022-11-15T18:50:04.356Z,19.75
2022-11-15T18:52:34.053Z,19.70
2022-11-15T18:55:02.319Z,17.27
2022-11-15T18:57:30.644Z,17.38
2022-11-15T18:59:58.951Z,17.75
2022-11-15T19:02:28.040Z,18.25
2022-11-15T19:04:56.420Z,16.23
2022-11-15T19:07:24.838Z,25.13
2022-11-15T19:09:54.656Z,18.65
2022-11-15T19:12:22.958Z,18.90
2022-11-15T19:14:51.194Z,17.83
2022-11-15T19:17:19.506Z,15.63
2022-11-15T19:19:47.863Z,16.15
2022-11-15T19:22:16.122Z,14.25
2022-11-15T19:24:44.385Z,14.77
2022-11-15T19:27:14.109Z,16.45
2022-11-15T19:29:42.658Z,14.88
2022-11-15T19:32:10.988Z,16.15
2022-11-15T19:34:41.706Z,15.57
2022-11-15T19:37:10.212Z,13.93
2022-11-15T19:39:41.270Z,16.55
2022-11-15T19:42:09.774Z,16.88
2022-11-15T19:44:39.510Z,17.38
2022-11-15T19:47:09.392Z,16.55
2022-11-15T19:49:37.789Z,15.18
2022-11-15T19:52:06.757Z,18.75
2022-11-15T19:54:35.072Z,16.70
2022-11-15T19:57:03.338Z,17.80
2022-11-15T19:59:31.653Z,18.02
2022-11-15T20:02:01.366Z,15.43
2022-11-15T20:04:29.686Z,16.98
2022-11-15T20:06:57.961Z,16.10
2022-11-15T20:09:26.640Z,14.32
2022-11-15T20:11:54.920Z,16.00
2022-11-15T20:14:24.154Z,14.25
2022-11-15T20:16:54.473Z,14.05
2022-11-15T20:19:24.348Z,16.80
2022-11-15T20:21:52.748Z,15.85
2022-11-15T20:24:21.118Z,15.65
2022-11-15T20:26:49.339Z,16.35
2022-11-15T20:29:17.777Z,16.38
2022-11-15T20:31:46.184Z,15.85
2022-11-15T20:34:14.470Z,16.52
2022-11-15T20:36:44.824Z,17.60
2022-11-15T20:39:13.152Z,16.55
2022-11-15T20:41:41.597Z,15.68
2022-11-15T20:44:09.947Z,15.25
2022-11-15T20:46:38.286Z,17.05
2022-11-15T20:49:07.147Z,19.23
2022-11-15T20:51:35.427Z,17.02
2022-11-15T20:54:06.269Z,19.52
2022-11-15T20:56:34.553Z,16.13
2022-11-15T20:59:02.867Z,17.52
2022-11-15T21:01:31.873Z,13.95
2022-11-15T21:04:00.649Z,15.98
2022-11-15T21:06:28.983Z,14.32
2022-11-15T21:09:14.816Z,17.48
2022-11-15T21:12:02.373Z,20.17
2022-11-15T21:14:31.157Z,19.20
2022-11-15T21:16:59.563Z,15.43
2022-11-15T21:19:32.685Z,21.92
2022-11-15T21:22:04.620Z,17.60
2022-11-15T21:24:33.138Z,16.75
2022-11-15T21:27:02.872Z,16.45
2022-11-15T21:29:37.470Z,15.88
2022-11-15T21:32:07.392Z,16.02
2022-11-15T21:34:35.940Z,15.48
2022-11-15T21:37:04.303Z,18.00
2022-11-15T21:39:32.589Z,19.63
2022-11-15T21:42:02.457Z,18.95
2022-11-15T21:44:30.826Z,16.80
2022-11-15T21:46:59.074Z,15.77
2022-11-15T21:49:27.400Z,16.40
2022-11-15T21:51:55.687Z,15.30
2022-11-15T21:54:23.956Z,16.63
2022-11-15T21:56:52.179Z,15.55
2022-11-15T21:59:21.883Z,17.67
2022-11-15T22:02:07.218Z,14.57
2022-11-15T22:04:35.524Z,16.23
2022-11-15T22:07:03.898Z,15.80
2022-11-15T22:09:32.169Z,15.02
2022-11-15T22:12:00.521Z,16.70
2022-11-15T22:14:30.237Z,16.00
2022-11-15T22:16:58.556Z,16.45
2022-11-15T22:19:26.835Z,15.02
2022-11-15T22:21:55.183Z,14.98
2022-11-15T22:24:23.708Z,17.60
2022-11-15T22:26:52.755Z,15.05
2022-11-15T22:29:21.161Z,15.13
2022-11-15T22:31:50.820Z,15.43
2022-11-15T22:34:19.146Z,15.65
2022-11-15T22:37:18.380Z,16.60
2022-11-15T22:39:35.961Z,14.07
2022-11-15T22:42:04.340Z,16.92
2022-11-15T22:44:32.693Z,15.52
2022-11-15T22:47:02.469Z,15.95
2022-11-15T22:49:30.818Z,17.52
2022-11-15T22:51:59.089Z,17.83
2022-11-15T22:54:27.497Z,14.95
2022-11-15T22:56:55.809Z,18.20
2022-11-15T22:59:24.112Z,15.70
2022-11-15T23:01:54.010Z,14.98
2022-11-15T23:04:23.965Z,16.38
2022-11-15T23:06:52.378Z,15.18
2022-11-15T23:09:20.725Z,14.75
2022-11-15T23:12:06.469Z,13.40
2022-11-15T23:14:34.886Z,16.08
2022-11-15T23:17:03.395Z,15.48
2022-11-15T23:19:33.120Z,15.80
2022-11-15T23:22:15.321Z,14.75
2022-11-15T23:24:43.733Z,16.25
2022-11-15T23:27:15.253Z,14.43
2022-11-15T23:30:01.158Z,18.05
2022-11-15T23:32:47.067Z,15.15
2022-11-15T23:35:17.256Z,16.23
2022-11-15T23:37:45.654Z,17.55
2022-11-15T23:40:14.552Z,20.92
2022-11-15T23:42:42.967Z,17.15
2022-11-15T23:45:12.781Z,17.58
2022-11-15T23:47:41.211Z,18.02
2022-11-15T23:50:10.171Z,15.05
2022-11-15T23:52:39.901Z,17.65
2022-11-15T23:55:08.842Z,16.42
2022-11-15T23:57:37.153Z,16.98
